sensor_id;sensor_type;location;lat;lon;timestamp;temperature;humidity
69225;DHT22;56333;51.306;17.056;2023-06-22T00:00:03;22.95;73.65
69225;DHT22;56333;51.306;17.056;2023-06-22T00:01:56;22.92;73.65
69225;DHT22;56333;51.306;17.056;2023-06-22T00:03:25;22.92;73.85
69225;DHT22;56333;51.306;17.056;2023-06-22T00:04:54;22.91;73.93
69225;DHT22;56333;51.306;17.056;2023-06-22T00:06:22;22.91;74.05
69225;DHT22;56333;51.306;17.056;2023-06-22T00:07:51;22.92;73.97
69225;DHT22;56333;51.306;17.056;2023-06-22T00:09:20;22.90;73.97
69225;DHT22;56333;51.306;17.056;2023-06-22T00:10:48;22.90;73.85
69225;DHT22;56333;51.306;17.056;2023-06-22T00:12:17;22.90;73.78
69225;DHT22;56333;51.306;17.056;2023-06-22T00:13:46;22.87;73.82
69225;DHT22;56333;51.306;17.056;2023-06-22T00:15:15;22.85;73.72
69225;DHT22;56333;51.306;17.056;2023-06-22T00:16:44;22.85;73.80
69225;DHT22;56333;51.306;17.056;2023-06-22T00:18:14;22.85;73.88
69225;DHT22;56333;51.306;17.056;2023-06-22T00:19:42;22.85;73.95
69225;DHT22;56333;51.306;17.056;2023-06-22T00:21:17;22.85;73.90
69225;DHT22;56333;51.306;17.056;2023-06-22T00:22:46;22.84;73.93
69225;DHT22;56333;51.306;17.056;2023-06-22T00:24:15;22.84;73.95
69225;DHT22;56333;51.306;17.056;2023-06-22T00:25:44;22.82;74.00
69225;DHT22;56333;51.306;17.056;2023-06-22T00:27:13;22.79;73.93
69225;DHT22;56333;51.306;17.056;2023-06-22T00:28:42;22.76;73.97
69225;DHT22;56333;51.306;17.056;2023-06-22T00:30:12;22.75;74.13
69225;DHT22;56333;51.306;17.056;2023-06-22T00:31:41;22.73;74.22
69225;DHT22;56333;51.306;17.056;2023-06-22T00:33:10;22.72;74.43
69225;DHT22;56333;51.306;17.056;2023-06-22T00:34:40;22.71;74.45
69225;DHT22;56333;51.306;17.056;2023-06-22T00:36:09;22.70;74.50
69225;DHT22;56333;51.306;17.056;2023-06-22T00:37:40;22.68;74.57
69225;DHT22;56333;51.306;17.056;2023-06-22T00:39:08;22.68;74.63
69225;DHT22;56333;51.306;17.056;2023-06-22T00:40:37;22.66;74.55
69225;DHT22;56333;51.306;17.056;2023-06-22T00:42:06;22.66;74.57
69225;DHT22;56333;51.306;17.056;2023-06-22T00:43:35;22.64;74.50
69225;DHT22;56333;51.306;17.056;2023-06-22T00:45:07;22.62;74.50
69225;DHT22;56333;51.306;17.056;2023-06-22T00:46:35;22.58;74.45
69225;DHT22;56333;51.306;17.056;2023-06-22T00:48:04;22.58;74.80
69225;DHT22;56333;51.306;17.056;2023-06-22T00:49:34;22.58;74.97
69225;DHT22;56333;51.306;17.056;2023-06-22T00:51:03;22.58;75.00
69225;DHT22;56333;51.306;17.056;2023-06-22T00:52:32;22.58;75.03
69225;DHT22;56333;51.306;17.056;2023-06-22T00:54:02;22.58;74.97
69225;DHT22;56333;51.306;17.056;2023-06-22T00:55:30;22.56;74.95
69225;DHT22;56333;51.306;17.056;2023-06-22T00:57:01;22.52;75.00
69225;DHT22;56333;51.306;17.056;2023-06-22T00:58:34;22.52;75.07
69225;DHT22;56333;51.306;17.056;2023-06-22T01:00:07;22.53;75.18
69225;DHT22;56333;51.306;17.056;2023-06-22T01:01:43;22.52;75.25
69225;DHT22;56333;51.306;17.056;2023-06-22T01:03:13;22.53;75.28
69225;DHT22;56333;51.306;17.056;2023-06-22T01:04:41;22.55;75.35
69225;DHT22;56333;51.306;17.056;2023-06-22T01:06:15;22.53;75.25
69225;DHT22;56333;51.306;17.056;2023-06-22T01:07:59;22.53;75.15
69225;DHT22;56333;51.306;17.056;2023-06-22T01:09:39;22.52;75.05
69225;DHT22;56333;51.306;17.056;2023-06-22T01:11:18;22.50;75.05
69225;DHT22;56333;51.306;17.056;2023-06-22T01:12:55;22.48;75.18
69225;DHT22;56333;51.306;17.056;2023-06-22T01:14:40;22.48;75.28
69225;DHT22;56333;51.306;17.056;2023-06-22T01:16:18;22.45;75.32
69225;DHT22;56333;51.306;17.056;2023-06-22T01:17:51;22.45;75.47
69225;DHT22;56333;51.306;17.056;2023-06-22T01:19:34;22.47;75.50
69225;DHT22;56333;51.306;17.056;2023-06-22T01:21:09;22.47;75.47
69225;DHT22;56333;51.306;17.056;2023-06-22T01:22:50;22.45;75.40
69225;DHT22;56333;51.306;17.056;2023-06-22T01:24:36;22.43;75.25
69225;DHT22;56333;51.306;17.056;2023-06-22T01:26:19;22.40;75.18
69225;DHT22;56333;51.306;17.056;2023-06-22T01:28:03;22.38;75.22
69225;DHT22;56333;51.306;17.056;2023-06-22T01:29:49;22.34;75.35
69225;DHT22;56333;51.306;17.056;2023-06-22T01:31:25;22.33;75.50
69225;DHT22;56333;51.306;17.056;2023-06-22T01:32:56;22.32;75.53
69225;DHT22;56333;51.306;17.056;2023-06-22T01:34:23;22.30;75.43
69225;DHT22;56333;51.306;17.056;2023-06-22T01:35:54;22.31;75.57
69225;DHT22;56333;51.306;17.056;2023-06-22T01:37:23;22.32;75.57
69225;DHT22;56333;51.306;17.056;2023-06-22T01:38:53;22.30;75.45
69225;DHT22;56333;51.306;17.056;2023-06-22T01:40:23;22.30;75.47
69225;DHT22;56333;51.306;17.056;2023-06-22T01:41:53;22.27;75.43
69225;DHT22;56333;51.306;17.056;2023-06-22T01:43:22;22.26;75.45
69225;DHT22;56333;51.306;17.056;2023-06-22T01:44:53;22.24;75.55
69225;DHT22;56333;51.306;17.056;2023-06-22T01:46:23;22.22;75.60
69225;DHT22;56333;51.306;17.056;2023-06-22T01:47:52;22.23;75.65
69225;DHT22;56333;51.306;17.056;2023-06-22T01:49:21;22.22;75.63
69225;DHT22;56333;51.306;17.056;2023-06-22T01:50:50;22.21;75.65
69225;DHT22;56333;51.306;17.056;2023-06-22T01:52:19;22.19;75.55
69225;DHT22;56333;51.306;17.056;2023-06-22T01:53:47;22.18;75.53
69225;DHT22;56333;51.306;17.056;2023-06-22T01:55:17;22.16;75.55
69225;DHT22;56333;51.306;17.056;2023-06-22T01:56:47;22.12;75.60
69225;DHT22;56333;51.306;17.056;2023-06-22T01:58:16;22.11;75.70
69225;DHT22;56333;51.306;17.056;2023-06-22T01:59:50;22.09;75.80
69225;DHT22;56333;51.306;17.056;2023-06-22T02:01:27;22.08;75.90
69225;DHT22;56333;51.306;17.056;2023-06-22T02:03:03;22.07;75.95
69225;DHT22;56333;51.306;17.056;2023-06-22T02:04:37;22.06;75.93
69225;DHT22;56333;51.306;17.056;2023-06-22T02:06:14;22.05;75.82
69225;DHT22;56333;51.306;17.056;2023-06-22T02:07:52;22.03;75.75
69225;DHT22;56333;51.306;17.056;2023-06-22T02:09:30;22.00;75.65
69225;DHT22;56333;51.306;17.056;2023-06-22T02:11:02;21.98;75.55
69225;DHT22;56333;51.306;17.056;2023-06-22T02:12:33;21.94;75.50
69225;DHT22;56333;51.306;17.056;2023-06-22T02:14:03;21.91;75.53
69225;DHT22;56333;51.306;17.056;2023-06-22T02:15:34;21.89;75.55
69225;DHT22;56333;51.306;17.056;2023-06-22T02:17:03;21.87;75.53
69225;DHT22;56333;51.306;17.056;2023-06-22T02:18:33;21.86;75.47
69225;DHT22;56333;51.306;17.056;2023-06-22T02:20:02;21.84;75.50
69225;DHT22;56333;51.306;17.056;2023-06-22T02:21:33;21.83;75.55
69225;DHT22;56333;51.306;17.056;2023-06-22T02:23:02;21.80;75.45
69225;DHT22;56333;51.306;17.056;2023-06-22T02:24:33;21.77;75.30
69225;DHT22;56333;51.306;17.056;2023-06-22T02:26:01;21.76;75.43
69225;DHT22;56333;51.306;17.056;2023-06-22T02:27:30;21.71;75.50
69225;DHT22;56333;51.306;17.056;2023-06-22T02:28:59;21.68;75.68
69225;DHT22;56333;51.306;17.056;2023-06-22T02:30:28;21.66;75.72
69225;DHT22;56333;51.306;17.056;2023-06-22T02:31:57;21.66;75.80
69225;DHT22;56333;51.306;17.056;2023-06-22T02:33:26;21.65;75.90
69225;DHT22;56333;51.306;17.056;2023-06-22T02:34:55;21.65;75.90
69225;DHT22;56333;51.306;17.056;2023-06-22T02:36:24;21.66;75.90
69225;DHT22;56333;51.306;17.056;2023-06-22T02:37:55;21.64;75.88
69225;DHT22;56333;51.306;17.056;2023-06-22T02:39:24;21.63;75.80
69225;DHT22;56333;51.306;17.056;2023-06-22T02:40:53;21.59;75.68
69225;DHT22;56333;51.306;17.056;2023-06-22T02:42:22;21.58;75.57
69225;DHT22;56333;51.306;17.056;2023-06-22T02:43:51;21.58;75.55
69225;DHT22;56333;51.306;17.056;2023-06-22T02:45:20;21.57;75.50
69225;DHT22;56333;51.306;17.056;2023-06-22T02:46:49;21.56;75.55
69225;DHT22;56333;51.306;17.056;2023-06-22T02:48:18;21.55;75.57
69225;DHT22;56333;51.306;17.056;2023-06-22T02:49:48;21.55;75.55
69225;DHT22;56333;51.306;17.056;2023-06-22T02:51:17;21.56;75.47
69225;DHT22;56333;51.306;17.056;2023-06-22T02:52:46;21.55;75.55
69225;DHT22;56333;51.306;17.056;2023-06-22T02:54:15;21.56;75.65
69225;DHT22;56333;51.306;17.056;2023-06-22T02:55:45;21.57;75.60
69225;DHT22;56333;51.306;17.056;2023-06-22T02:57:14;21.56;75.82
69225;DHT22;56333;51.306;17.056;2023-06-22T02:58:43;21.57;75.88
69225;DHT22;56333;51.306;17.056;2023-06-22T03:00:13;21.58;76.18
69225;DHT22;56333;51.306;17.056;2023-06-22T03:01:43;21.62;76.38
69225;DHT22;56333;51.306;17.056;2023-06-22T03:03:17;21.65;76.70
69225;DHT22;56333;51.306;17.056;2023-06-22T03:04:45;21.67;76.88
69225;DHT22;56333;51.306;17.056;2023-06-22T03:06:14;21.69;77.07
69225;DHT22;56333;51.306;17.056;2023-06-22T03:07:48;21.74;77.40
69225;DHT22;56333;51.306;17.056;2023-06-22T03:09:16;21.77;77.25
69225;DHT22;56333;51.306;17.056;2023-06-22T03:10:45;21.77;77.45
69225;DHT22;56333;51.306;17.056;2023-06-22T03:12:14;21.80;77.30
69225;DHT22;56333;51.306;17.056;2023-06-22T03:13:49;21.80;77.45
69225;DHT22;56333;51.306;17.056;2023-06-22T03:15:18;21.81;77.40
69225;DHT22;56333;51.306;17.056;2023-06-22T03:16:46;21.82;77.50
69225;DHT22;56333;51.306;17.056;2023-06-22T03:18:16;21.82;77.57
69225;DHT22;56333;51.306;17.056;2023-06-22T03:19:46;21.86;77.57
69225;DHT22;56333;51.306;17.056;2023-06-22T03:21:15;21.92;77.60
69225;DHT22;56333;51.306;17.056;2023-06-22T03:22:44;21.95;77.47
69225;DHT22;56333;51.306;17.056;2023-06-22T03:24:13;22.10;77.32
69225;DHT22;56333;51.306;17.056;2023-06-22T03:25:42;22.28;77.03
69225;DHT22;56333;51.306;17.056;2023-06-22T03:27:10;22.46;76.55
69225;DHT22;56333;51.306;17.056;2023-06-22T03:28:39;22.51;76.15
69225;DHT22;56333;51.306;17.056;2023-06-22T03:30:11;22.52;76.03
69225;DHT22;56333;51.306;17.056;2023-06-22T03:31:40;22.54;75.82
69225;DHT22;56333;51.306;17.056;2023-06-22T03:33:09;22.67;75.68
69225;DHT22;56333;51.306;17.056;2023-06-22T03:34:38;22.90;75.28
69225;DHT22;56333;51.306;17.056;2023-06-22T03:36:11;23.13;74.97
69225;DHT22;56333;51.306;17.056;2023-06-22T03:37:43;23.38;74.55
69225;DHT22;56333;51.306;17.056;2023-06-22T03:39:11;23.60;73.93
69225;DHT22;56333;51.306;17.056;2023-06-22T03:40:40;23.80;73.47
69225;DHT22;56333;51.306;17.056;2023-06-22T03:42:09;24.01;72.82
69225;DHT22;56333;51.306;17.056;2023-06-22T03:43:38;24.21;72.18
69225;DHT22;56333;51.306;17.056;2023-06-22T03:45:08;24.38;71.57
69225;DHT22;56333;51.306;17.056;2023-06-22T03:46:39;24.52;70.95
69225;DHT22;56333;51.306;17.056;2023-06-22T03:48:08;24.63;70.63
69225;DHT22;56333;51.306;17.056;2023-06-22T03:49:36;24.73;70.10
69225;DHT22;56333;51.306;17.056;2023-06-22T03:51:05;24.84;69.82
69225;DHT22;56333;51.306;17.056;2023-06-22T03:52:34;24.95;69.60
69225;DHT22;56333;51.306;17.056;2023-06-22T03:54:03;25.02;68.50
69225;DHT22;56333;51.306;17.056;2023-06-22T03:55:33;25.05;68.22
69225;DHT22;56333;51.306;17.056;2023-06-22T03:57:03;25.08;68.03
69225;DHT22;56333;51.306;17.056;2023-06-22T03:58:32;25.13;68.10
69225;DHT22;56333;51.306;17.056;2023-06-22T04:00:09;25.15;67.93
69225;DHT22;56333;51.306;17.056;2023-06-22T04:01:40;25.13;67.72
69225;DHT22;56333;51.306;17.056;2023-06-22T04:03:09;25.12;67.80
69225;DHT22;56333;51.306;17.056;2023-06-22T04:04:38;25.10;67.45
69225;DHT22;56333;51.306;17.056;2023-06-22T04:06:07;25.18;67.53
69225;DHT22;56333;51.306;17.056;2023-06-22T04:07:36;25.18;67.47
69225;DHT22;56333;51.306;17.056;2023-06-22T04:09:05;25.14;67.60
69225;DHT22;56333;51.306;17.056;2023-06-22T04:10:34;25.17;67.32
69225;DHT22;56333;51.306;17.056;2023-06-22T04:12:03;25.35;67.32
69225;DHT22;56333;51.306;17.056;2023-06-22T04:13:34;25.57;66.95
69225;DHT22;56333;51.306;17.056;2023-06-22T04:15:04;25.79;66.63
69225;DHT22;56333;51.306;17.056;2023-06-22T04:16:36;26.08;66.13
69225;DHT22;56333;51.306;17.056;2023-06-22T04:18:06;26.37;65.80
69225;DHT22;56333;51.306;17.056;2023-06-22T04:19:34;26.66;65.20
69225;DHT22;56333;51.306;17.056;2023-06-22T04:21:02;26.97;64.40
69225;DHT22;56333;51.306;17.056;2023-06-22T04:22:31;27.27;63.50
69225;DHT22;56333;51.306;17.056;2023-06-22T04:24:00;27.52;62.40
69225;DHT22;56333;51.306;17.056;2023-06-22T04:25:29;27.77;62.53
69225;DHT22;56333;51.306;17.056;2023-06-22T04:26:58;28.06;61.58
69225;DHT22;56333;51.306;17.056;2023-06-22T04:28:26;28.28;60.58
69225;DHT22;56333;51.306;17.056;2023-06-22T04:29:59;28.47;60.58
69225;DHT22;56333;51.306;17.056;2023-06-22T04:31:27;28.55;60.03
69225;DHT22;56333;51.306;17.056;2023-06-22T04:33:00;28.71;60.00
69225;DHT22;56333;51.306;17.056;2023-06-22T04:34:29;28.86;59.03
69225;DHT22;56333;51.306;17.056;2023-06-22T04:35:58;29.01;59.20
69225;DHT22;56333;51.306;17.056;2023-06-22T04:37:28;29.20;58.95
69225;DHT22;56333;51.306;17.056;2023-06-22T04:38:57;29.30;57.90
69225;DHT22;56333;51.306;17.056;2023-06-22T04:40:25;29.31;57.42
69225;DHT22;56333;51.306;17.056;2023-06-22T04:41:54;29.42;56.83
69225;DHT22;56333;51.306;17.056;2023-06-22T04:43:24;29.60;56.75
69225;DHT22;56333;51.306;17.056;2023-06-22T04:44:54;29.75;55.78
69225;DHT22;56333;51.306;17.056;2023-06-22T04:46:23;30.01;54.72
69225;DHT22;56333;51.306;17.056;2023-06-22T04:47:52;30.28;55.05
69225;DHT22;56333;51.306;17.056;2023-06-22T04:49:20;30.55;54.63
69225;DHT22;56333;51.306;17.056;2023-06-22T04:50:57;30.90;54.20
69225;DHT22;56333;51.306;17.056;2023-06-22T04:52:28;31.19;52.55
69225;DHT22;56333;51.306;17.056;2023-06-22T04:53:56;31.50;52.92
69225;DHT22;56333;51.306;17.056;2023-06-22T04:55:25;31.75;51.90
69225;DHT22;56333;51.306;17.056;2023-06-22T04:56:54;31.98;50.95
69225;DHT22;56333;51.306;17.056;2023-06-22T04:58:22;32.20;50.13
69225;DHT22;56333;51.306;17.056;2023-06-22T04:59:52;32.49;50.17
69225;DHT22;56333;51.306;17.056;2023-06-22T05:01:20;32.67;47.75
69225;DHT22;56333;51.306;17.056;2023-06-22T05:02:49;32.85;47.85
69225;DHT22;56333;51.306;17.056;2023-06-22T05:04:17;33.15;47.40
69225;DHT22;56333;51.306;17.056;2023-06-22T05:05:46;33.41;47.47
69225;DHT22;56333;51.306;17.056;2023-06-22T05:07:15;33.53;46.85
69225;DHT22;56333;51.306;17.056;2023-06-22T05:08:44;33.76;47.03
69225;DHT22;56333;51.306;17.056;2023-06-22T05:10:12;33.97;46.65
69225;DHT22;56333;51.306;17.056;2023-06-22T05:11:42;34.18;46.00
69225;DHT22;56333;51.306;17.056;2023-06-22T05:13:11;34.26;45.13
69225;DHT22;56333;51.306;17.056;2023-06-22T05:14:40;34.44;45.00
69225;DHT22;56333;51.306;17.056;2023-06-22T05:16:08;34.57;44.33
69225;DHT22;56333;51.306;17.056;2023-06-22T05:17:38;34.72;44.40
69225;DHT22;56333;51.306;17.056;2023-06-22T05:19:07;34.87;43.90
69225;DHT22;56333;51.306;17.056;2023-06-22T05:20:36;34.93;42.92
69225;DHT22;56333;51.306;17.056;2023-06-22T05:22:05;35.10;44.08
69225;DHT22;56333;51.306;17.056;2023-06-22T05:23:36;35.26;41.70
69225;DHT22;56333;51.306;17.056;2023-06-22T05:25:07;35.54;42.65
69225;DHT22;56333;51.306;17.056;2023-06-22T05:26:38;35.62;41.95
69225;DHT22;56333;51.306;17.056;2023-06-22T05:28:06;35.44;40.55
69225;DHT22;56333;51.306;17.056;2023-06-22T05:29:35;35.35;40.97
69225;DHT22;56333;51.306;17.056;2023-06-22T05:31:04;35.12;41.22
69225;DHT22;56333;51.306;17.056;2023-06-22T05:32:33;35.20;41.85
69225;DHT22;56333;51.306;17.056;2023-06-22T05:34:02;35.00;41.20
69225;DHT22;56333;51.306;17.056;2023-06-22T05:35:30;35.13;41.50
69225;DHT22;56333;51.306;17.056;2023-06-22T05:36:59;35.11;40.38
69225;DHT22;56333;51.306;17.056;2023-06-22T05:38:29;35.19;41.08
69225;DHT22;56333;51.306;17.056;2023-06-22T05:39:58;35.44;40.47
69225;DHT22;56333;51.306;17.056;2023-06-22T05:41:27;35.63;40.47
69225;DHT22;56333;51.306;17.056;2023-06-22T05:42:56;35.75;40.03
69225;DHT22;56333;51.306;17.056;2023-06-22T05:44:25;35.74;40.05
69225;DHT22;56333;51.306;17.056;2023-06-22T05:45:54;35.63;40.13
69225;DHT22;56333;51.306;17.056;2023-06-22T05:47:23;35.37;39.95
69225;DHT22;56333;51.306;17.056;2023-06-22T05:48:53;35.58;39.78
69225;DHT22;56333;51.306;17.056;2023-06-22T05:50:22;35.81;39.55
69225;DHT22;56333;51.306;17.056;2023-06-22T05:51:51;35.50;39.28
69225;DHT22;56333;51.306;17.056;2023-06-22T05:53:19;35.18;39.65
69225;DHT22;56333;51.306;17.056;2023-06-22T05:54:48;35.23;40.13
69225;DHT22;56333;51.306;17.056;2023-06-22T05:56:17;35.24;39.97
69225;DHT22;56333;51.306;17.056;2023-06-22T05:57:46;35.29;39.95
69225;DHT22;56333;51.306;17.056;2023-06-22T05:59:15;35.51;39.83
69225;DHT22;56333;51.306;17.056;2023-06-22T06:00:44;35.53;39.00
69225;DHT22;56333;51.306;17.056;2023-06-22T06:02:13;35.47;38.97
69225;DHT22;56333;51.306;17.056;2023-06-22T06:03:41;35.41;39.53
69225;DHT22;56333;51.306;17.056;2023-06-22T06:05:11;35.09;39.55
69225;DHT22;56333;51.306;17.056;2023-06-22T06:06:40;34.75;40.05
69225;DHT22;56333;51.306;17.056;2023-06-22T06:08:09;34.26;40.35
69225;DHT22;56333;51.306;17.056;2023-06-22T06:09:38;33.77;40.95
69225;DHT22;56333;51.306;17.056;2023-06-22T06:11:07;33.17;41.70
69225;DHT22;56333;51.306;17.056;2023-06-22T06:12:35;32.47;42.60
69225;DHT22;56333;51.306;17.056;2023-06-22T06:14:04;32.21;43.35
69225;DHT22;56333;51.306;17.056;2023-06-22T06:15:33;31.99;43.95
69225;DHT22;56333;51.306;17.056;2023-06-22T06:17:03;31.73;44.42
69225;DHT22;56333;51.306;17.056;2023-06-22T06:18:31;31.53;44.70
69225;DHT22;56333;51.306;17.056;2023-06-22T06:20:02;30.92;45.95
69225;DHT22;56333;51.306;17.056;2023-06-22T06:21:33;30.57;46.72
69225;DHT22;56333;51.306;17.056;2023-06-22T06:23:01;30.43;46.72
69225;DHT22;56333;51.306;17.056;2023-06-22T06:24:30;30.27;47.13
69225;DHT22;56333;51.306;17.056;2023-06-22T06:25:58;30.11;48.00
69225;DHT22;56333;51.306;17.056;2023-06-22T06:27:31;29.96;47.88
69225;DHT22;56333;51.306;17.056;2023-06-22T06:29:01;29.76;48.65
69225;DHT22;56333;51.306;17.056;2023-06-22T06:30:30;29.60;48.97
69225;DHT22;56333;51.306;17.056;2023-06-22T06:31:59;29.35;49.80
69225;DHT22;56333;51.306;17.056;2023-06-22T06:33:27;29.30;49.50
69225;DHT22;56333;51.306;17.056;2023-06-22T06:34:56;29.17;49.97
69225;DHT22;56333;51.306;17.056;2023-06-22T06:36:25;29.02;50.28
69225;DHT22;56333;51.306;17.056;2023-06-22T06:37:54;28.88;50.80
69225;DHT22;56333;51.306;17.056;2023-06-22T06:39:23;28.82;51.13
69225;DHT22;56333;51.306;17.056;2023-06-22T06:40:52;28.70;51.20
69225;DHT22;56333;51.306;17.056;2023-06-22T06:42:21;28.57;51.38
69225;DHT22;56333;51.306;17.056;2023-06-22T06:43:49;28.48;51.63
69225;DHT22;56333;51.306;17.056;2023-06-22T06:45:19;28.36;52.17
69225;DHT22;56333;51.306;17.056;2023-06-22T06:46:50;28.33;52.35
69225;DHT22;56333;51.306;17.056;2023-06-22T06:48:19;28.32;52.55
69225;DHT22;56333;51.306;17.056;2023-06-22T06:49:48;28.25;52.65
69225;DHT22;56333;51.306;17.056;2023-06-22T06:51:17;28.21;52.50
69225;DHT22;56333;51.306;17.056;2023-06-22T06:52:45;28.15;52.58
69225;DHT22;56333;51.306;17.056;2023-06-22T06:54:16;28.07;52.75
69225;DHT22;56333;51.306;17.056;2023-06-22T06:55:45;27.97;52.80
69225;DHT22;56333;51.306;17.056;2023-06-22T06:57:14;27.89;53.13
69225;DHT22;56333;51.306;17.056;2023-06-22T06:58:44;27.80;53.70
69225;DHT22;56333;51.306;17.056;2023-06-22T07:00:17;27.87;53.35
69225;DHT22;56333;51.306;17.056;2023-06-22T07:01:46;27.92;53.35
69225;DHT22;56333;51.306;17.056;2023-06-22T07:03:15;27.93;53.50
69225;DHT22;56333;51.306;17.056;2023-06-22T07:04:44;27.90;53.65
69225;DHT22;56333;51.306;17.056;2023-06-22T07:06:12;27.90;53.80
69225;DHT22;56333;51.306;17.056;2023-06-22T07:07:42;27.86;54.38
69225;DHT22;56333;51.306;17.056;2023-06-22T07:09:11;27.85;54.20
69225;DHT22;56333;51.306;17.056;2023-06-22T07:10:39;27.75;54.50
69225;DHT22;56333;51.306;17.056;2023-06-22T07:12:09;27.69;54.45
69225;DHT22;56333;51.306;17.056;2023-06-22T07:13:38;27.68;54.58
69225;DHT22;56333;51.306;17.056;2023-06-22T07:15:08;27.70;55.10
69225;DHT22;56333;51.306;17.056;2023-06-22T07:16:38;27.75;54.80
69225;DHT22;56333;51.306;17.056;2023-06-22T07:18:07;27.76;54.88
69225;DHT22;56333;51.306;17.056;2023-06-22T07:19:36;27.79;55.35
69225;DHT22;56333;51.306;17.056;2023-06-22T07:21:06;27.78;55.33
69225;DHT22;56333;51.306;17.056;2023-06-22T07:22:34;27.76;55.42
69225;DHT22;56333;51.306;17.056;2023-06-22T07:24:04;27.70;55.53
69225;DHT22;56333;51.306;17.056;2023-06-22T07:25:34;27.72;55.53
69225;DHT22;56333;51.306;17.056;2023-06-22T07:27:04;27.75;55.33
69225;DHT22;56333;51.306;17.056;2023-06-22T07:28:35;27.77;55.65
69225;DHT22;56333;51.306;17.056;2023-06-22T07:30:06;27.76;55.58
69225;DHT22;56333;51.306;17.056;2023-06-22T07:31:37;27.75;55.97
69225;DHT22;56333;51.306;17.056;2023-06-22T07:33:06;27.75;56.00
69225;DHT22;56333;51.306;17.056;2023-06-22T07:34:35;27.72;56.13
69225;DHT22;56333;51.306;17.056;2023-06-22T07:36:03;27.69;56.28
69225;DHT22;56333;51.306;17.056;2023-06-22T07:37:32;27.62;56.40
69225;DHT22;56333;51.306;17.056;2023-06-22T07:39:02;27.61;56.67
69225;DHT22;56333;51.306;17.056;2023-06-22T07:40:31;27.63;56.50
69225;DHT22;56333;51.306;17.056;2023-06-22T07:42:00;27.61;56.35
69225;DHT22;56333;51.306;17.056;2023-06-22T07:43:29;27.62;56.58
69225;DHT22;56333;51.306;17.056;2023-06-22T07:44:58;27.58;56.65
69225;DHT22;56333;51.306;17.056;2023-06-22T07:46:28;27.60;56.47
69225;DHT22;56333;51.306;17.056;2023-06-22T07:47:57;27.63;56.28
69225;DHT22;56333;51.306;17.056;2023-06-22T07:49:27;27.55;56.30
69225;DHT22;56333;51.306;17.056;2023-06-22T07:50:56;27.38;56.63
69225;DHT22;56333;51.306;17.056;2023-06-22T07:52:25;27.40;56.63
69225;DHT22;56333;51.306;17.056;2023-06-22T07:53:53;27.47;56.63
69225;DHT22;56333;51.306;17.056;2023-06-22T07:55:22;27.55;56.63
69225;DHT22;56333;51.306;17.056;2023-06-22T07:56:51;27.57;56.22
69225;DHT22;56333;51.306;17.056;2023-06-22T07:58:20;27.58;56.05
69225;DHT22;56333;51.306;17.056;2023-06-22T07:59:49;27.54;56.20
69225;DHT22;56333;51.306;17.056;2023-06-22T08:01:18;27.56;56.30
69225;DHT22;56333;51.306;17.056;2023-06-22T08:02:47;27.57;56.42
69225;DHT22;56333;51.306;17.056;2023-06-22T08:04:16;27.58;56.45
69225;DHT22;56333;51.306;17.056;2023-06-22T08:05:45;27.56;56.58
69225;DHT22;56333;51.306;17.056;2023-06-22T08:07:13;27.57;56.38
69225;DHT22;56333;51.306;17.056;2023-06-22T08:08:44;27.51;56.35
69225;DHT22;56333;51.306;17.056;2023-06-22T08:10:13;27.46;56.10
69225;DHT22;56333;51.306;17.056;2023-06-22T08:11:42;27.42;56.05
69225;DHT22;56333;51.306;17.056;2023-06-22T08:13:11;27.38;56.17
69225;DHT22;56333;51.306;17.056;2023-06-22T08:14:43;27.39;56.08
69225;DHT22;56333;51.306;17.056;2023-06-22T08:16:11;27.40;56.05
69225;DHT22;56333;51.306;17.056;2023-06-22T08:17:40;27.35;55.88
69225;DHT22;56333;51.306;17.056;2023-06-22T08:19:10;27.31;55.63
69225;DHT22;56333;51.306;17.056;2023-06-22T08:20:39;27.30;55.60
69225;DHT22;56333;51.306;17.056;2023-06-22T08:22:08;27.29;55.47
69225;DHT22;56333;51.306;17.056;2023-06-22T08:23:37;27.31;55.03
69225;DHT22;56333;51.306;17.056;2023-06-22T08:25:07;27.36;54.63
69225;DHT22;56333;51.306;17.056;2023-06-22T08:26:37;27.44;54.88
69225;DHT22;56333;51.306;17.056;2023-06-22T08:28:06;27.55;55.00
69225;DHT22;56333;51.306;17.056;2023-06-22T08:29:35;27.65;54.90
69225;DHT22;56333;51.306;17.056;2023-06-22T08:31:03;27.69;54.80
69225;DHT22;56333;51.306;17.056;2023-06-22T08:32:32;27.72;54.75
69225;DHT22;56333;51.306;17.056;2023-06-22T08:34:00;27.74;54.80
69225;DHT22;56333;51.306;17.056;2023-06-22T08:35:29;27.82;54.70
69225;DHT22;56333;51.306;17.056;2023-06-22T08:36:59;27.77;54.35
69225;DHT22;56333;51.306;17.056;2023-06-22T08:38:30;27.76;54.53
69225;DHT22;56333;51.306;17.056;2023-06-22T08:39:59;27.76;54.42
69225;DHT22;56333;51.306;17.056;2023-06-22T08:41:32;27.78;54.20
69225;DHT22;56333;51.306;17.056;2023-06-22T08:43:00;27.75;53.90
69225;DHT22;56333;51.306;17.056;2023-06-22T08:44:29;27.74;53.90
69225;DHT22;56333;51.306;17.056;2023-06-22T08:45:58;27.74;53.83
69225;DHT22;56333;51.306;17.056;2023-06-22T08:47:28;27.69;53.38
69225;DHT22;56333;51.306;17.056;2023-06-22T08:48:57;27.72;53.38
69225;DHT22;56333;51.306;17.056;2023-06-22T08:50:26;27.71;53.28
69225;DHT22;56333;51.306;17.056;2023-06-22T08:51:55;27.67;53.22
69225;DHT22;56333;51.306;17.056;2023-06-22T08:53:24;27.68;53.38
69225;DHT22;56333;51.306;17.056;2023-06-22T08:54:53;27.67;53.53
69225;DHT22;56333;51.306;17.056;2023-06-22T08:56:22;27.71;53.25
69225;DHT22;56333;51.306;17.056;2023-06-22T08:57:51;27.63;52.65
69225;DHT22;56333;51.306;17.056;2023-06-22T08:59:19;27.50;52.42
69225;DHT22;56333;51.306;17.056;2023-06-22T09:00:48;27.40;52.72
69225;DHT22;56333;51.306;17.056;2023-06-22T09:02:16;27.41;52.95
69225;DHT22;56333;51.306;17.056;2023-06-22T09:03:46;27.43;53.13
69225;DHT22;56333;51.306;17.056;2023-06-22T09:05:18;27.43;52.78
69225;DHT22;56333;51.306;17.056;2023-06-22T09:06:47;27.41;52.53
69225;DHT22;56333;51.306;17.056;2023-06-22T09:08:16;27.41;52.55
69225;DHT22;56333;51.306;17.056;2023-06-22T09:09:45;27.47;52.53
69225;DHT22;56333;51.306;17.056;2023-06-22T09:11:14;27.46;51.85
69225;DHT22;56333;51.306;17.056;2023-06-22T09:12:43;27.42;51.88
69225;DHT22;56333;51.306;17.056;2023-06-22T09:14:12;27.42;51.75
69225;DHT22;56333;51.306;17.056;2023-06-22T09:15:41;27.43;51.38
69225;DHT22;56333;51.306;17.056;2023-06-22T09:17:10;27.41;50.70
69225;DHT22;56333;51.306;17.056;2023-06-22T09:18:39;27.40;50.80